首页
METAR-TAF:

METAR-TAF

机场 :

Pian Rosa, 意大利

纬度: 45-56N, 经度: 007-42E, 海拔: 3480米

当前天气观测

该预报发布于1小时和23分钟前的20:55 UTC
风速19节,风向东北
温度 -10°C
湿度 100%
气压 1012 hPa
能見度: 0100
小雪, 冻雾

METAR: LIMH 112055Z 05019KT 0100 -SN FZFG VV/// M10/M10 Q1012 RMK MON INVIS VAL INVIS VIS MIN 0100

时间: 00:18 (22:18 UTC)


TAF: 丢失

超过4000个机场的气象观测和天气预报(METAR&TAF报告)。

可查询的气象台以黄色和红色小点在地图上表示。

将鼠标移到小点上方,可查看气象台名称。

然后点击查看天气观测和预报。

如需切换地图:点击带黑十字的绿色按钮放大地图;点击带横线的绿色按钮缩小地图;或者点击绿色箭头查看邻近地区的地图。


METAR-TAF: